createdAt,value
2018-10-07T00:00:20.428Z,19.93
2018-10-07T00:02:48.661Z,20.33
2018-10-07T00:05:16.923Z,20.77
2018-10-07T00:07:45.198Z,22.23
2018-10-07T00:10:13.454Z,21.57
2018-10-07T00:12:41.659Z,21.03
2018-10-07T00:15:09.891Z,20.10
2018-10-07T00:17:38.129Z,20.53
2018-10-07T00:20:06.367Z,20.83
2018-10-07T00:22:34.655Z,21.10
2018-10-07T00:25:02.869Z,20.97
2018-10-07T00:27:31.090Z,20.67
2018-10-07T00:29:59.367Z,21.50
2018-10-07T00:32:27.724Z,21.80
2018-10-07T00:34:56.027Z,20.40
2018-10-07T00:37:24.277Z,20.73
2018-10-07T00:39:52.489Z,20.20
2018-10-07T00:42:20.746Z,20.20
2018-10-07T00:44:48.981Z,22.67
2018-10-07T00:47:17.223Z,23.23
2018-10-07T00:49:47.520Z,24.03
2018-10-07T00:52:19.831Z,24.27
2018-10-07T00:54:48.160Z,25.93
2018-10-07T00:57:16.347Z,28.27
2018-10-07T00:59:44.559Z,27.77
2018-10-07T01:02:12.793Z,30.83
2018-10-07T01:04:41.045Z,29.17
2018-10-07T01:07:09.282Z,27.30
2018-10-07T01:09:37.518Z,26.97
2018-10-07T01:12:05.752Z,23.07
2018-10-07T01:14:38.053Z,26.00
2018-10-07T01:17:06.753Z,23.80
2018-10-07T01:19:35.001Z,23.93
2018-10-07T01:22:07.260Z,24.73
2018-10-07T01:24:35.499Z,24.60
2018-10-07T01:27:03.755Z,25.70
2018-10-07T01:29:32.029Z,25.60
2018-10-07T01:32:00.258Z,27.03
2018-10-07T01:34:28.523Z,27.10
2018-10-07T01:36:56.748Z,26.00
2018-10-07T01:39:24.983Z,25.23
2018-10-07T01:41:53.225Z,27.30
2018-10-07T01:44:21.479Z,26.90
2018-10-07T01:46:49.743Z,26.03
2018-10-07T01:49:18.009Z,26.57
2018-10-07T01:51:46.270Z,25.13
2018-10-07T01:54:14.588Z,24.87
2018-10-07T01:56:42.820Z,26.03
2018-10-07T01:59:11.211Z,23.23
2018-10-07T02:01:39.604Z,24.87
2018-10-07T02:04:07.833Z,23.70
2018-10-07T02:06:36.099Z,23.90
2018-10-07T02:09:05.810Z,23.57
2018-10-07T02:11:34.072Z,22.57
2018-10-07T02:14:02.421Z,24.30
2018-10-07T02:16:30.671Z,22.30
2018-10-07T02:18:58.950Z,22.63
2018-10-07T02:21:27.166Z,23.77
2018-10-07T02:23:55.532Z,23.37
2018-10-07T02:26:23.805Z,26.80
2018-10-07T02:28:52.065Z,31.37
2018-10-07T02:31:20.305Z,32.17
2018-10-07T02:36:28.735Z,32.67
2018-10-07T02:38:56.944Z,31.47
2018-10-07T02:41:25.201Z,31.23
2018-10-07T02:43:53.412Z,32.37
2018-10-07T02:46:21.631Z,30.60
2018-10-07T02:48:49.928Z,29.47
2018-10-07T02:51:18.151Z,29.10
2018-10-07T02:53:46.390Z,27.80
2018-10-07T02:56:14.619Z,28.00
2018-10-07T02:58:44.971Z,29.77
2018-10-07T03:01:13.291Z,30.60
2018-10-07T03:03:41.529Z,30.73
2018-10-07T03:06:09.745Z,32.00
2018-10-07T03:08:37.999Z,28.30
2018-10-07T03:11:06.223Z,27.53
2018-10-07T03:13:34.491Z,29.03
2018-10-07T03:16:02.697Z,27.47
2018-10-07T03:18:30.917Z,27.60
2018-10-07T03:20:59.186Z,26.43
2018-10-07T03:23:27.468Z,26.53
2018-10-07T03:26:02.175Z,28.80
2018-10-07T03:28:30.400Z,27.60
2018-10-07T03:30:58.625Z,28.27
2018-10-07T03:33:26.995Z,28.57
2018-10-07T03:35:55.200Z,28.87
2018-10-07T03:38:23.445Z,28.03
2018-10-07T03:40:51.672Z,27.90
2018-10-07T03:43:19.942Z,30.33
2018-10-07T03:45:48.130Z,32.37
2018-10-07T03:48:16.362Z,32.87
2018-10-07T03:50:44.641Z,30.93
2018-10-07T03:53:12.878Z,30.87
2018-10-07T03:55:41.247Z,33.70
2018-10-07T03:58:09.502Z,34.53
2018-10-07T04:00:37.769Z,35.43
2018-10-07T04:03:06.092Z,35.20
2018-10-07T04:05:34.293Z,36.00
2018-10-07T04:08:02.523Z,42.90
2018-10-07T04:10:30.727Z,43.37
2018-10-07T04:12:58.948Z,40.43
2018-10-07T04:15:27.196Z,39.03
2018-10-07T04:17:55.466Z,39.07
2018-10-07T04:20:23.678Z,35.87
2018-10-07T04:22:51.925Z,35.97
2018-10-07T04:25:20.130Z,36.10
2018-10-07T04:27:48.424Z,39.57
2018-10-07T04:30:16.628Z,37.80
2018-10-07T04:32:44.836Z,37.67
2018-10-07T04:35:13.068Z,37.73
2018-10-07T04:37:41.286Z,38.37
2018-10-07T04:40:09.533Z,39.63
2018-10-07T04:42:37.721Z,36.30
2018-10-07T04:45:05.946Z,34.37
2018-10-07T04:47:34.187Z,35.47
2018-10-07T04:50:02.409Z,36.87
2018-10-07T04:52:30.653Z,35.90
2018-10-07T04:54:58.842Z,35.40
2018-10-07T04:57:27.121Z,35.97
2018-10-07T04:59:55.423Z,34.30
2018-10-07T05:02:23.786Z,34.70
2018-10-07T05:04:54.079Z,35.10
2018-10-07T05:07:22.319Z,35.90
2018-10-07T05:09:55.011Z,36.97
2018-10-07T05:12:23.295Z,33.90
2018-10-07T05:14:51.537Z,31.73
2018-10-07T05:17:20.049Z,34.03
2018-10-07T05:19:48.286Z,34.13
2018-10-07T05:22:16.557Z,32.43
2018-10-07T05:24:44.768Z,32.27
2018-10-07T05:27:12.982Z,33.43
2018-10-07T05:29:41.193Z,34.90
2018-10-07T05:32:09.388Z,33.40
2018-10-07T05:34:37.638Z,33.10
2018-10-07T05:37:05.898Z,35.07
2018-10-07T05:39:34.111Z,35.57
2018-10-07T05:42:02.322Z,37.37
2018-10-07T05:44:30.611Z,37.17
2018-10-07T05:46:58.790Z,36.97
2018-10-07T05:49:26.978Z,34.80
2018-10-07T05:51:55.262Z,34.00
2018-10-07T05:54:23.461Z,33.83
2018-10-07T05:56:51.771Z,33.40
2018-10-07T05:59:20.027Z,32.97
2018-10-07T06:01:48.404Z,32.07
2018-10-07T06:04:23.282Z,33.00
2018-10-07T06:06:51.726Z,33.00
2018-10-07T06:09:23.009Z,33.03
2018-10-07T06:11:51.265Z,32.87
2018-10-07T06:14:24.962Z,31.13
2018-10-07T06:16:53.324Z,30.50
2018-10-07T06:19:21.506Z,32.27
2018-10-07T06:21:50.359Z,32.30
2018-10-07T06:24:18.562Z,30.37
2018-10-07T06:26:46.765Z,31.33
2018-10-07T06:29:15.022Z,30.43
2018-10-07T06:31:43.421Z,31.23
2018-10-07T06:34:11.648Z,31.47
2018-10-07T06:36:39.909Z,28.20
2018-10-07T06:39:08.278Z,29.63
2018-10-07T06:41:36.545Z,28.90
2018-10-07T06:44:04.754Z,39.10
2018-10-07T06:46:32.977Z,28.00
2018-10-07T06:49:01.191Z,26.23
2018-10-07T06:51:29.487Z,25.93
2018-10-07T06:53:57.798Z,34.37
2018-10-07T06:56:26.009Z,24.87
2018-10-07T06:58:54.198Z,22.03
2018-10-07T07:01:22.417Z,21.60
2018-10-07T07:03:50.677Z,22.90
2018-10-07T07:06:18.928Z,22.67
2018-10-07T07:08:47.156Z,23.37
2018-10-07T07:11:15.376Z,22.50
2018-10-07T07:13:43.609Z,21.57
2018-10-07T07:16:11.876Z,21.37
2018-10-07T07:18:40.170Z,20.27
2018-10-07T07:21:08.376Z,19.93
2018-10-07T07:23:36.613Z,20.37
2018-10-07T07:26:04.834Z,20.47
2018-10-07T07:28:33.063Z,21.10
2018-10-07T07:31:01.331Z,21.50
2018-10-07T07:33:29.520Z,22.53
2018-10-07T07:35:57.708Z,22.13
2018-10-07T07:38:25.885Z,22.50
2018-10-07T07:40:54.089Z,21.20
2018-10-07T07:43:22.310Z,20.73
2018-10-07T07:45:50.615Z,21.33
2018-10-07T07:48:18.978Z,22.23
2018-10-07T07:50:47.180Z,22.27
2018-10-07T07:53:15.481Z,22.53
2018-10-07T07:55:43.734Z,19.90
2018-10-07T07:58:12.023Z,18.53
2018-10-07T08:00:40.233Z,18.97
2018-10-07T08:03:08.656Z,18.77
2018-10-07T08:05:37.025Z,19.43
2018-10-07T08:08:05.339Z,18.43
2018-10-07T08:10:37.629Z,17.83
2018-10-07T08:13:05.882Z,18.57
2018-10-07T08:15:36.134Z,18.10
2018-10-07T08:18:04.367Z,18.23
2018-10-07T08:20:32.578Z,17.90
2018-10-07T08:23:00.762Z,18.53
2018-10-07T08:25:29.015Z,17.13
2018-10-07T08:27:57.280Z,19.60
2018-10-07T08:30:25.507Z,17.20
2018-10-07T08:32:53.733Z,16.43
2018-10-07T08:35:21.960Z,15.97
2018-10-07T08:37:50.252Z,17.17
2018-10-07T08:40:18.497Z,16.03
2018-10-07T08:42:46.733Z,16.83
2018-10-07T08:45:15.045Z,17.27
2018-10-07T08:47:43.253Z,15.97
2018-10-07T08:50:11.533Z,15.80
2018-10-07T08:52:39.769Z,15.10
2018-10-07T08:55:07.994Z,15.23
2018-10-07T08:57:36.258Z,15.77
2018-10-07T09:00:04.493Z,14.70
2018-10-07T09:02:32.716Z,16.13
2018-10-07T09:05:00.954Z,14.30
2018-10-07T09:07:29.183Z,14.27
2018-10-07T09:09:57.385Z,15.17
2018-10-07T09:12:25.627Z,14.77
2018-10-07T09:14:53.854Z,14.97
2018-10-07T09:17:22.108Z,16.00
2018-10-07T09:19:50.327Z,15.10
2018-10-07T09:22:18.533Z,15.33
2018-10-07T09:24:46.778Z,15.70
2018-10-07T09:27:15.068Z,14.87
2018-10-07T09:29:43.313Z,15.10
2018-10-07T09:32:11.570Z,14.63
2018-10-07T09:34:39.752Z,13.80
2018-10-07T09:37:09.186Z,14.07
2018-10-07T09:39:37.410Z,13.70
2018-10-07T09:42:05.660Z,13.93
2018-10-07T09:44:33.860Z,12.57
2018-10-07T09:47:02.171Z,12.67
2018-10-07T09:49:30.539Z,12.00
2018-10-07T09:51:58.842Z,11.50
2018-10-07T09:54:27.061Z,12.00
2018-10-07T09:56:55.297Z,11.53
2018-10-07T09:59:23.501Z,11.60
2018-10-07T10:01:51.801Z,11.73
2018-10-07T10:04:20.140Z,11.53
2018-10-07T10:06:48.342Z,11.50
2018-10-07T10:09:16.570Z,11.33
2018-10-07T10:11:44.805Z,11.40
2018-10-07T10:14:13.788Z,11.87
2018-10-07T10:16:45.503Z,11.40
2018-10-07T10:19:18.418Z,12.60
2018-10-07T10:21:47.506Z,11.60
2018-10-07T10:24:31.550Z,10.83
2018-10-07T10:27:01.548Z,10.73
2018-10-07T10:29:31.175Z,10.43
2018-10-07T10:33:07.019Z,11.83
2018-10-07T10:35:37.775Z,10.03
2018-10-07T10:38:10.572Z,10.20
2018-10-07T10:40:42.999Z,10.67
2018-10-07T10:43:14.099Z,9.47
2018-10-07T10:46:18.095Z,9.43
2018-10-07T10:48:54.650Z,9.83
2018-10-07T10:51:31.507Z,9.57
2018-10-07T10:54:03.536Z,10.17
2018-10-07T10:56:36.203Z,10.40
2018-10-07T10:59:06.524Z,10.13
2018-10-07T11:02:11.119Z,9.60
2018-10-07T11:04:43.905Z,9.63
2018-10-07T11:07:27.451Z,8.57
2018-10-07T11:10:27.409Z,8.67
2018-10-07T11:13:00.680Z,9.10
2018-10-07T11:15:34.571Z,8.30
2018-10-07T11:18:06.394Z,7.60
2018-10-07T11:21:04.985Z,8.30
2018-10-07T11:23:34.206Z,8.17
2018-10-07T11:26:04.848Z,8.63
2018-10-07T11:30:41.387Z,7.87
2018-10-07T11:35:21.004Z,7.33
2018-10-07T11:37:52.485Z,7.67
2018-10-07T11:40:39.090Z,7.67
2018-10-07T11:43:09.555Z,8.60
2018-10-07T11:45:39.681Z,7.50
2018-10-07T11:48:13.290Z,8.23
2018-10-07T11:50:59.102Z,6.97
2018-10-07T11:53:30.159Z,7.03
2018-10-07T11:55:58.378Z,7.40
2018-10-07T11:58:26.607Z,7.10
2018-10-07T12:00:54.848Z,7.13
2018-10-07T12:03:23.264Z,7.93
2018-10-07T12:05:51.511Z,7.40
2018-10-07T12:08:19.837Z,6.60
2018-10-07T12:10:48.072Z,6.80
2018-10-07T12:13:16.256Z,7.07
2018-10-07T12:15:44.440Z,7.63
2018-10-07T12:18:12.724Z,6.80
2018-10-07T12:20:40.939Z,7.13
2018-10-07T12:23:09.201Z,6.63
2018-10-07T12:25:37.500Z,6.70
2018-10-07T12:28:05.758Z,6.70
2018-10-07T12:30:33.991Z,7.33
2018-10-07T12:33:02.232Z,6.63
2018-10-07T12:35:30.449Z,6.63
2018-10-07T12:37:58.657Z,7.67
2018-10-07T12:40:26.884Z,8.20
2018-10-07T12:42:55.201Z,8.83
2018-10-07T12:45:23.412Z,9.10
2018-10-07T12:47:51.619Z,9.37
2018-10-07T12:50:19.858Z,8.87
2018-10-07T12:52:48.485Z,8.80
2018-10-07T12:55:16.716Z,9.37
2018-10-07T12:57:44.944Z,8.90
2018-10-07T13:00:13.157Z,9.10
2018-10-07T13:02:41.357Z,8.83
2018-10-07T13:05:09.625Z,8.00
2018-10-07T13:07:37.897Z,7.50
2018-10-07T13:10:06.113Z,8.00
2018-10-07T13:12:34.338Z,7.17
2018-10-07T13:15:02.568Z,6.80
2018-10-07T13:17:30.793Z,6.00
2018-10-07T13:19:59.062Z,5.70
2018-10-07T13:22:27.266Z,5.97
2018-10-07T13:24:55.496Z,5.67
2018-10-07T13:27:23.701Z,5.13
2018-10-07T13:29:51.897Z,4.63
2018-10-07T13:32:20.174Z,4.50
2018-10-07T13:34:48.400Z,5.00
2018-10-07T13:37:16.647Z,5.37
2018-10-07T13:39:44.911Z,5.53
2018-10-07T13:42:13.133Z,5.60
2018-10-07T13:44:41.421Z,6.00
2018-10-07T13:47:09.650Z,5.93
2018-10-07T13:49:37.839Z,5.50
2018-10-07T13:52:06.130Z,6.47
2018-10-07T13:54:34.341Z,7.03
2018-10-07T13:57:02.644Z,6.40
2018-10-07T13:59:30.854Z,6.77
2018-10-07T14:01:59.050Z,7.07
2018-10-07T14:04:27.308Z,7.00
2018-10-07T14:06:55.516Z,7.60
2018-10-07T14:09:23.861Z,7.47
2018-10-07T14:11:52.114Z,7.50
2018-10-07T14:14:20.356Z,7.50
2018-10-07T14:16:48.563Z,7.77
2018-10-07T14:19:16.753Z,7.30
2018-10-07T14:21:45.067Z,8.03
2018-10-07T14:24:13.285Z,7.67
2018-10-07T14:26:41.502Z,7.97
2018-10-07T14:29:09.708Z,7.10
2018-10-07T14:31:37.944Z,8.40
2018-10-07T14:34:06.277Z,8.00
2018-10-07T14:36:34.523Z,8.53
2018-10-07T14:39:02.776Z,9.60
2018-10-07T14:41:31.037Z,9.93
2018-10-07T14:43:59.252Z,12.67
2018-10-07T14:46:27.478Z,12.90
2018-10-07T14:48:55.661Z,13.47
2018-10-07T14:51:23.849Z,13.33
2018-10-07T14:53:52.061Z,13.47
2018-10-07T14:56:20.304Z,15.07
2018-10-07T14:58:48.559Z,18.20
2018-10-07T15:01:16.900Z,17.83
2018-10-07T15:03:45.073Z,18.90
2018-10-07T15:06:13.427Z,18.87
2018-10-07T15:08:41.705Z,18.27
2018-10-07T15:11:09.990Z,19.90
2018-10-07T15:13:38.211Z,18.30
2018-10-07T15:16:06.441Z,18.83
2018-10-07T15:18:34.623Z,17.83
2018-10-07T15:21:02.838Z,17.57
2018-10-07T15:23:31.089Z,16.27
2018-10-07T15:25:59.261Z,17.60
2018-10-07T15:28:27.475Z,16.67
2018-10-07T15:30:55.675Z,15.57
2018-10-07T15:33:23.902Z,14.97
2018-10-07T15:35:52.153Z,15.07
2018-10-07T15:38:20.354Z,15.97
2018-10-07T15:40:48.618Z,15.80
2018-10-07T15:43:16.816Z,15.47
2018-10-07T15:45:45.030Z,14.57
2018-10-07T15:48:13.259Z,15.30
2018-10-07T15:50:41.513Z,15.53
2018-10-07T15:53:09.718Z,15.90
2018-10-07T15:55:38.119Z,13.30
2018-10-07T15:58:06.394Z,12.93
2018-10-07T16:00:34.733Z,9.40
2018-10-07T16:03:02.939Z,9.57
2018-10-07T16:05:31.263Z,9.33
2018-10-07T16:07:59.478Z,8.70
2018-10-07T16:10:27.711Z,8.10
2018-10-07T16:12:55.986Z,11.07
2018-10-07T16:15:24.775Z,11.77
2018-10-07T16:17:53.112Z,11.80
2018-10-07T16:20:21.539Z,8.70
2018-10-07T16:22:49.820Z,9.07
2018-10-07T16:25:18.075Z,7.10
2018-10-07T16:27:46.296Z,7.53
2018-10-07T16:30:14.570Z,7.07
2018-10-07T16:32:42.762Z,8.53
2018-10-07T16:35:10.973Z,8.33
2018-10-07T16:37:39.209Z,7.73
2018-10-07T16:40:07.390Z,7.47
2018-10-07T16:42:35.596Z,7.10
2018-10-07T16:45:03.820Z,7.83
2018-10-07T16:47:32.027Z,7.47
2018-10-07T16:50:00.294Z,10.00
2018-10-07T16:52:28.573Z,10.37
2018-10-07T16:54:56.774Z,8.57
2018-10-07T16:57:24.967Z,9.30
2018-10-07T16:59:53.219Z,8.20
2018-10-07T17:02:21.500Z,6.50
2018-10-07T17:04:49.697Z,6.20
2018-10-07T17:07:17.921Z,6.20
2018-10-07T17:09:46.116Z,5.50
2018-10-07T17:12:14.306Z,5.73
2018-10-07T17:14:42.560Z,5.93
2018-10-07T17:17:10.764Z,5.77
2018-10-07T17:19:38.973Z,5.80
2018-10-07T17:22:07.157Z,5.97
2018-10-07T17:24:35.346Z,5.37
2018-10-07T17:27:03.611Z,4.70
2018-10-07T17:29:31.857Z,5.13
2018-10-07T17:32:00.051Z,3.90
2018-10-07T17:34:28.343Z,4.00
2018-10-07T17:36:56.550Z,4.40
2018-10-07T17:39:24.786Z,3.10
2018-10-07T17:41:53.002Z,3.77
2018-10-07T17:44:21.191Z,3.57
2018-10-07T17:46:49.393Z,3.90
2018-10-07T17:49:17.593Z,6.43
2018-10-07T17:51:45.820Z,4.73
2018-10-07T17:54:14.007Z,5.43
2018-10-07T17:56:42.196Z,4.40
2018-10-07T17:59:10.381Z,4.60
2018-10-07T18:01:38.694Z,6.10
2018-10-07T18:04:37.597Z,4.40
2018-10-07T18:07:05.878Z,7.60
2018-10-07T18:09:34.071Z,2.90
2018-10-07T18:12:02.258Z,3.10
2018-10-07T18:14:30.565Z,3.00
2018-10-07T18:16:58.810Z,2.57
2018-10-07T18:19:27.010Z,3.00
2018-10-07T18:21:55.251Z,4.00
2018-10-07T18:24:23.422Z,3.53
2018-10-07T18:26:51.639Z,2.90
2018-10-07T18:29:19.875Z,3.20
2018-10-07T18:31:48.084Z,3.23
2018-10-07T18:34:16.307Z,3.30
2018-10-07T18:36:44.515Z,3.37
2018-10-07T18:39:12.787Z,3.10
2018-10-07T18:41:41.064Z,3.47
2018-10-07T18:44:09.311Z,3.03
2018-10-07T18:46:37.620Z,3.23
2018-10-07T18:49:06.367Z,3.47
2018-10-07T18:51:34.532Z,3.53
2018-10-07T18:54:02.917Z,3.03
2018-10-07T18:56:31.145Z,3.63
2018-10-07T18:58:59.395Z,3.40
2018-10-07T19:01:27.590Z,6.83
2018-10-07T19:03:55.803Z,4.90
2018-10-07T19:06:24.223Z,4.20
2018-10-07T19:08:52.503Z,4.70
2018-10-07T19:11:20.732Z,5.53
2018-10-07T19:13:48.981Z,5.20
2018-10-07T19:16:17.165Z,3.50
2018-10-07T19:18:45.417Z,3.40
2018-10-07T19:21:13.683Z,3.20
2018-10-07T19:23:41.837Z,2.87
2018-10-07T19:26:10.063Z,3.33
2018-10-07T19:28:38.266Z,3.13
2018-10-07T19:31:06.525Z,3.07
2018-10-07T19:33:34.706Z,3.00
2018-10-07T19:36:09.327Z,2.90
2018-10-07T19:38:37.767Z,2.97
2018-10-07T19:41:06.351Z,3.00
2018-10-07T19:43:34.728Z,2.87
2018-10-07T19:46:03.318Z,3.23
2018-10-07T19:48:31.585Z,3.13
2018-10-07T19:50:59.773Z,3.40
2018-10-07T19:53:28.258Z,3.00
2018-10-07T19:55:56.698Z,3.50
2018-10-07T19:58:25.051Z,3.63
2018-10-07T20:00:53.356Z,3.43
2018-10-07T20:03:21.532Z,4.47
2018-10-07T20:05:49.743Z,3.97
2018-10-07T20:08:17.959Z,4.60
2018-10-07T20:10:46.158Z,4.70
2018-10-07T20:13:14.418Z,4.40
2018-10-07T20:15:42.614Z,5.47
2018-10-07T20:18:10.845Z,4.73
2018-10-07T20:20:39.021Z,4.70
2018-10-07T20:23:07.217Z,4.17
2018-10-07T20:25:35.450Z,3.93
2018-10-07T20:28:03.624Z,4.60
2018-10-07T20:30:31.811Z,3.80
2018-10-07T20:33:00.159Z,3.83
2018-10-07T20:35:28.752Z,3.40
2018-10-07T20:37:57.239Z,3.03
2018-10-07T20:40:25.597Z,3.57
2018-10-07T20:42:55.321Z,3.80
2018-10-07T20:45:23.498Z,2.97
2018-10-07T20:47:51.793Z,3.17
2018-10-07T20:50:20.396Z,3.50
2018-10-07T20:52:48.706Z,3.70
2018-10-07T20:55:16.901Z,3.80
2018-10-07T20:57:45.148Z,4.47
2018-10-07T21:00:13.465Z,4.13
2018-10-07T21:02:41.808Z,4.17
2018-10-07T21:05:11.429Z,4.00
2018-10-07T21:07:40.437Z,3.70
2018-10-07T21:10:08.812Z,3.90
2018-10-07T21:12:37.046Z,7.30
2018-10-07T21:15:07.360Z,4.33
2018-10-07T21:17:35.646Z,4.17
2018-10-07T21:20:03.907Z,4.60
2018-10-07T21:22:32.239Z,5.00
2018-10-07T21:25:00.412Z,5.60
2018-10-07T21:27:28.659Z,5.97
2018-10-07T21:29:56.874Z,6.40
2018-10-07T21:32:25.092Z,5.63
2018-10-07T21:34:53.325Z,6.40
2018-10-07T21:37:21.532Z,6.67
2018-10-07T21:39:49.749Z,5.97
2018-10-07T21:42:18.023Z,6.50
2018-10-07T21:44:46.229Z,6.40
2018-10-07T21:47:14.505Z,6.30
2018-10-07T21:49:42.802Z,6.97
2018-10-07T21:52:11.004Z,6.90
2018-10-07T21:54:39.191Z,6.83
2018-10-07T21:57:07.393Z,7.00
2018-10-07T21:59:35.625Z,7.30
2018-10-07T22:02:03.802Z,6.80
2018-10-07T22:04:32.113Z,6.90
2018-10-07T22:07:00.297Z,6.63
2018-10-07T22:09:28.469Z,7.20
2018-10-07T22:11:56.652Z,6.80
2018-10-07T22:14:24.822Z,7.07
2018-10-07T22:16:53.046Z,6.90
2018-10-07T22:19:21.236Z,7.23
2018-10-07T22:21:49.457Z,7.37
2018-10-07T22:24:17.637Z,6.57
2018-10-07T22:26:45.879Z,7.37
2018-10-07T22:29:14.154Z,6.70
2018-10-07T22:31:42.332Z,6.43
2018-10-07T22:34:10.518Z,6.77
2018-10-07T22:36:38.689Z,6.13
2018-10-07T22:39:07.331Z,11.17
2018-10-07T22:41:35.869Z,19.77
2018-10-07T22:44:04.101Z,18.00
2018-10-07T22:46:32.285Z,18.90
2018-10-07T22:49:00.529Z,15.77
2018-10-07T22:51:28.741Z,8.10
2018-10-07T22:53:57.048Z,8.23
2018-10-07T22:56:25.320Z,8.63
2018-10-07T22:58:53.501Z,9.03
2018-10-07T23:01:21.716Z,8.80
2018-10-07T23:03:49.905Z,11.00
2018-10-07T23:06:18.122Z,8.50
2018-10-07T23:08:46.315Z,8.13
2018-10-07T23:11:14.526Z,7.70
2018-10-07T23:13:42.713Z,8.47
2018-10-07T23:16:10.887Z,10.13
2018-10-07T23:18:39.198Z,7.70
2018-10-07T23:21:07.375Z,7.20
2018-10-07T23:23:35.563Z,6.13
2018-10-07T23:26:03.776Z,6.37
2018-10-07T23:28:31.960Z,5.90
2018-10-07T23:31:00.187Z,6.37
2018-10-07T23:33:28.381Z,6.37
2018-10-07T23:35:56.600Z,7.30
2018-10-07T23:38:24.849Z,6.13
2018-10-07T23:40:54.396Z,7.63
2018-10-07T23:43:22.608Z,7.00
2018-10-07T23:45:50.829Z,6.80
2018-10-07T23:48:19.063Z,6.23
2018-10-07T23:50:47.277Z,6.77
2018-10-07T23:53:15.457Z,7.40
2018-10-07T23:55:43.686Z,7.30
2018-10-07T23:58:11.916Z,8.20
